This is the latest recevied weather packets stored in our database for station/object N7WGJ. If no packets are shown the sender has not sent any weather packets the latest 10 day(s).
| Time | Temp. | Humidity | Pressure | Rain* | Wind** | Luminosity | Snow |
|---|---|---|---|---|---|---|---|
| 1777883494 | 13.33° C | 74% | 1009.7 hPa | 0 mm | - | - | - |
| 1777882891 | 13.89° C | 72% | 1009.7 hPa | 0 mm | - | - | - |
| 1777882290 | 14.44° C | 71% | 1009.7 hPa | 0 mm | - | - | - |
| 1777881708 | 15° C | 68% | 1009.7 hPa | 0 mm | - | - | - |
| 1777881098 | 15.56° C | 67% | 1009.8 hPa | 0 mm | - | - | - |
| 1777880491 | 15.56° C | 65% | 1009.8 hPa | 0 mm | - | - | - |
| 1777879888 | 16.67° C | 63% | 1009.7 hPa | 0 mm | - | - | - |
| 1777879298 | 17.22° C | 60% | 1009.8 hPa | 0 mm | - | - | - |
| 1777878696 | 17.78° C | 58% | 1009.8 hPa | 0 mm | - | - | - |
| 1777878116 | 18.33° C | 56% | 1009.7 hPa | 0 mm | - | - | - |
| 1777877485 | 18.33° C | 54% | 1009.7 hPa | 0 mm | - | - | - |
| 1777876888 | 18.89° C | 53% | 1009.7 hPa | 0 mm | - | - | - |
| 1777876285 | 18.89° C | 52% | 1009.7 hPa | 0 mm | - | - | - |
| 1777875684 | 19.44° C | 51% | 1009.6 hPa | 0 mm | - | - | - |
| 1777875083 | 19.44° C | 50% | 1009.6 hPa | 0 mm | - | - | - |
| 1777874500 | 19.44° C | 49% | 1009.7 hPa | 0 mm | - | - | - |
| 1777873893 | 19.44° C | 48% | 1009.6 hPa | 0 mm | - | - | - |
| 1777873289 | 19.44° C | 48% | 1009.6 hPa | 0 mm | - | - | - |
| 1777872689 | 19.44° C | 49% | 1009.6 hPa | 0 mm | - | - | - |
| 1777872093 | 18.89° C | 49% | 1009.5 hPa | 0 mm | - | - | - |
| 1777871498 | 18.89° C | 49% | 1009.6 hPa | 0 mm | - | - | - |
| 1777870893 | 18.33° C | 51% | 1009.7 hPa | 0 mm | - | - | - |
| 1777870302 | 18.33° C | 52% | 1009.7 hPa | 0 mm | - | - | - |
| 1777869686 | 18.89° C | 51% | 1009.7 hPa | 0 mm | - | - | - |
| 1777869089 | 18.89° C | 51% | 1009.6 hPa | 0 mm | - | - | - |
* Rain latest hour (hover to see other rain measurements)
** Current wind speed in m/s (hover to see current wind gust speed)